sensor_id;sensor_type;location;lat;lon;timestamp;P1;durP1;ratioP1;P2;durP2;ratioP2
32912;SDS011;19266;45.580;-122.680;2022-09-25T00:00:46;2.95;;;2.50;;
32912;SDS011;19266;45.580;-122.680;2022-09-25T00:03:17;2.15;;;2.02;;
32912;SDS011;19266;45.580;-122.680;2022-09-25T00:05:47;7.53;;;2.92;;
32912;SDS011;19266;45.580;-122.680;2022-09-25T00:08:18;5.37;;;2.50;;
32912;SDS011;19266;45.580;-122.680;2022-09-25T00:10:49;18.25;;;3.22;;
32912;SDS011;19266;45.580;-122.680;2022-09-25T00:13:19;19.15;;;3.05;;
32912;SDS011;19266;45.580;-122.680;2022-09-25T00:15:53;22.52;;;3.27;;
32912;SDS011;19266;45.580;-122.680;2022-09-25T00:18:25;14.83;;;3.00;;
32912;SDS011;19266;45.580;-122.680;2022-09-25T00:21:13;8.43;;;2.92;;
32912;SDS011;19266;45.580;-122.680;2022-09-25T00:23:44;29.45;;;3.20;;
32912;SDS011;19266;45.580;-122.680;2022-09-25T00:26:14;11.78;;;2.95;;
32912;SDS011;19266;45.580;-122.680;2022-09-25T00:28:45;9.23;;;2.72;;
32912;SDS011;19266;45.580;-122.680;2022-09-25T00:31:18;3.42;;;2.37;;
32912;SDS011;19266;45.580;-122.680;2022-09-25T00:33:50;2.77;;;2.35;;
32912;SDS011;19266;45.580;-122.680;2022-09-25T00:36:20;3.62;;;2.50;;
32912;SDS011;19266;45.580;-122.680;2022-09-25T00:38:50;2.55;;;2.30;;
32912;SDS011;19266;45.580;-122.680;2022-09-25T00:41:21;8.28;;;2.87;;
32912;SDS011;19266;45.580;-122.680;2022-09-25T00:43:55;3.05;;;2.55;;
32912;SDS011;19266;45.580;-122.680;2022-09-25T00:46:33;4.22;;;2.55;;
32912;SDS011;19266;45.580;-122.680;2022-09-25T00:49:20;17.40;;;4.05;;
32912;SDS011;19266;45.580;-122.680;2022-09-25T00:51:52;6.55;;;3.20;;
32912;SDS011;19266;45.580;-122.680;2022-09-25T00:54:28;4.08;;;2.77;;
32912;SDS011;19266;45.580;-122.680;2022-09-25T00:56:55;4.87;;;3.00;;
32912;SDS011;19266;45.580;-122.680;2022-09-25T00:59:28;3.00;;;2.65;;
32912;SDS011;19266;45.580;-122.680;2022-09-25T01:02:02;4.95;;;2.92;;
32912;SDS011;19266;45.580;-122.680;2022-09-25T01:04:33;5.20;;;3.05;;
32912;SDS011;19266;45.580;-122.680;2022-09-25T01:07:04;9.53;;;3.00;;
32912;SDS011;19266;45.580;-122.680;2022-09-25T01:09:34;4.42;;;2.80;;
32912;SDS011;19266;45.580;-122.680;2022-09-25T01:12:05;4.62;;;2.65;;
32912;SDS011;19266;45.580;-122.680;2022-09-25T01:14:35;3.27;;;2.77;;
32912;SDS011;19266;45.580;-122.680;2022-09-25T01:17:11;2.85;;;2.65;;
32912;SDS011;19266;45.580;-122.680;2022-09-25T01:19:46;2.95;;;2.75;;
32912;SDS011;19266;45.580;-122.680;2022-09-25T01:25:40;4.10;;;2.83;;
32912;SDS011;19266;45.580;-122.680;2022-09-25T01:31:23;19.77;;;3.58;;
32912;SDS011;19266;45.580;-122.680;2022-09-25T01:34:04;9.55;;;3.12;;
32912;SDS011;19266;45.580;-122.680;2022-09-25T01:36:37;67.65;;;5.83;;
32912;SDS011;19266;45.580;-122.680;2022-09-25T01:39:15;31.10;;;4.25;;
32912;SDS011;19266;45.580;-122.680;2022-09-25T01:41:54;12.95;;;3.52;;
32912;SDS011;19266;45.580;-122.680;2022-09-25T01:44:26;4.97;;;3.00;;
32912;SDS011;19266;45.580;-122.680;2022-09-25T01:47:11;7.65;;;2.92;;
32912;SDS011;19266;45.580;-122.680;2022-09-25T01:49:42;4.87;;;2.90;;
32912;SDS011;19266;45.580;-122.680;2022-09-25T01:52:16;5.90;;;2.90;;
32912;SDS011;19266;45.580;-122.680;2022-09-25T01:54:49;3.30;;;2.80;;
32912;SDS011;19266;45.580;-122.680;2022-09-25T01:57:32;4.15;;;2.80;;
32912;SDS011;19266;45.580;-122.680;2022-09-25T02:00:12;3.85;;;3.02;;
32912;SDS011;19266;45.580;-122.680;2022-09-25T02:02:52;3.92;;;2.98;;
32912;SDS011;19266;45.580;-122.680;2022-09-25T02:08:02;4.65;;;3.37;;
32912;SDS011;19266;45.580;-122.680;2022-09-25T02:10:34;4.37;;;3.05;;
32912;SDS011;19266;45.580;-122.680;2022-09-25T02:13:15;4.17;;;3.40;;
32912;SDS011;19266;45.580;-122.680;2022-09-25T02:15:45;5.12;;;3.10;;
32912;SDS011;19266;45.580;-122.680;2022-09-25T02:18:24;3.35;;;3.05;;
32912;SDS011;19266;45.580;-122.680;2022-09-25T02:21:19;6.03;;;2.75;;
32912;SDS011;19266;45.580;-122.680;2022-09-25T02:24:01;5.47;;;2.80;;
32912;SDS011;19266;45.580;-122.680;2022-09-25T02:26:30;5.53;;;3.20;;
32912;SDS011;19266;45.580;-122.680;2022-09-25T02:29:00;4.25;;;2.87;;
32912;SDS011;19266;45.580;-122.680;2022-09-25T02:31:33;4.45;;;3.20;;
32912;SDS011;19266;45.580;-122.680;2022-09-25T02:34:05;3.35;;;2.98;;
32912;SDS011;19266;45.580;-122.680;2022-09-25T02:36:35;5.42;;;2.92;;
32912;SDS011;19266;45.580;-122.680;2022-09-25T02:39:04;6.95;;;3.40;;
32912;SDS011;19266;45.580;-122.680;2022-09-25T02:44:30;5.33;;;4.40;;
32912;SDS011;19266;45.580;-122.680;2022-09-25T02:47:08;5.40;;;3.90;;
32912;SDS011;19266;45.580;-122.680;2022-09-25T02:49:46;6.67;;;3.72;;
32912;SDS011;19266;45.580;-122.680;2022-09-25T02:58:06;4.28;;;3.87;;
32912;SDS011;19266;45.580;-122.680;2022-09-25T03:00:36;5.00;;;3.37;;
32912;SDS011;19266;45.580;-122.680;2022-09-25T03:03:08;4.83;;;2.85;;
32912;SDS011;19266;45.580;-122.680;2022-09-25T03:05:40;5.33;;;2.87;;
32912;SDS011;19266;45.580;-122.680;2022-09-25T03:08:11;3.85;;;2.95;;
32912;SDS011;19266;45.580;-122.680;2022-09-25T03:10:59;3.37;;;2.87;;
32912;SDS011;19266;45.580;-122.680;2022-09-25T03:13:30;6.15;;;3.10;;
32912;SDS011;19266;45.580;-122.680;2022-09-25T03:16:02;3.33;;;2.80;;
32912;SDS011;19266;45.580;-122.680;2022-09-25T03:18:39;4.83;;;2.90;;
32912;SDS011;19266;45.580;-122.680;2022-09-25T03:21:09;4.47;;;2.90;;
32912;SDS011;19266;45.580;-122.680;2022-09-25T03:23:39;4.90;;;3.08;;
32912;SDS011;19266;45.580;-122.680;2022-09-25T03:26:09;5.35;;;2.90;;
32912;SDS011;19266;45.580;-122.680;2022-09-25T03:28:39;4.50;;;3.08;;
32912;SDS011;19266;45.580;-122.680;2022-09-25T03:31:10;4.50;;;3.00;;
32912;SDS011;19266;45.580;-122.680;2022-09-25T03:33:40;3.35;;;3.00;;
32912;SDS011;19266;45.580;-122.680;2022-09-25T03:38:47;6.67;;;3.33;;
32912;SDS011;19266;45.580;-122.680;2022-09-25T03:41:19;8.15;;;3.52;;
32912;SDS011;19266;45.580;-122.680;2022-09-25T03:43:49;5.55;;;3.70;;
32912;SDS011;19266;45.580;-122.680;2022-09-25T03:46:20;4.87;;;3.20;;
32912;SDS011;19266;45.580;-122.680;2022-09-25T03:48:51;6.40;;;3.30;;
32912;SDS011;19266;45.580;-122.680;2022-09-25T03:51:22;3.90;;;3.50;;
32912;SDS011;19266;45.580;-122.680;2022-09-25T03:53:53;5.95;;;3.77;;
32912;SDS011;19266;45.580;-122.680;2022-09-25T03:56:25;6.22;;;3.17;;
32912;SDS011;19266;45.580;-122.680;2022-09-25T03:58:55;5.03;;;3.52;;
32912;SDS011;19266;45.580;-122.680;2022-09-25T04:01:26;4.67;;;3.20;;
32912;SDS011;19266;45.580;-122.680;2022-09-25T04:03:56;4.25;;;3.47;;
32912;SDS011;19266;45.580;-122.680;2022-09-25T04:06:27;5.08;;;3.25;;
32912;SDS011;19266;45.580;-122.680;2022-09-25T04:08:57;6.10;;;3.40;;
32912;SDS011;19266;45.580;-122.680;2022-09-25T04:11:27;3.87;;;3.10;;
32912;SDS011;19266;45.580;-122.680;2022-09-25T04:13:58;3.98;;;3.20;;
32912;SDS011;19266;45.580;-122.680;2022-09-25T04:16:28;4.00;;;3.02;;
32912;SDS011;19266;45.580;-122.680;2022-09-25T04:18:58;5.47;;;3.00;;
32912;SDS011;19266;45.580;-122.680;2022-09-25T04:21:28;5.10;;;3.20;;
32912;SDS011;19266;45.580;-122.680;2022-09-25T04:23:58;3.50;;;3.20;;
32912;SDS011;19266;45.580;-122.680;2022-09-25T04:26:45;3.75;;;3.00;;
32912;SDS011;19266;45.580;-122.680;2022-09-25T04:29:16;5.08;;;3.05;;
32912;SDS011;19266;45.580;-122.680;2022-09-25T04:31:47;4.45;;;3.40;;
32912;SDS011;19266;45.580;-122.680;2022-09-25T04:34:18;5.78;;;4.30;;
32912;SDS011;19266;45.580;-122.680;2022-09-25T04:36:48;4.30;;;3.70;;
32912;SDS011;19266;45.580;-122.680;2022-09-25T04:39:18;4.40;;;3.42;;
32912;SDS011;19266;45.580;-122.680;2022-09-25T04:41:48;3.87;;;3.40;;
32912;SDS011;19266;45.580;-122.680;2022-09-25T04:44:18;5.65;;;3.20;;
32912;SDS011;19266;45.580;-122.680;2022-09-25T04:46:47;4.22;;;3.30;;
32912;SDS011;19266;45.580;-122.680;2022-09-25T04:49:18;4.58;;;3.33;;
32912;SDS011;19266;45.580;-122.680;2022-09-25T04:51:48;5.87;;;3.60;;
32912;SDS011;19266;45.580;-122.680;2022-09-25T04:54:18;4.75;;;3.20;;
32912;SDS011;19266;45.580;-122.680;2022-09-25T04:56:48;5.60;;;3.40;;
32912;SDS011;19266;45.580;-122.680;2022-09-25T04:59:19;5.40;;;3.47;;
32912;SDS011;19266;45.580;-122.680;2022-09-25T05:01:49;5.97;;;3.30;;
32912;SDS011;19266;45.580;-122.680;2022-09-25T05:04:19;6.87;;;3.50;;
32912;SDS011;19266;45.580;-122.680;2022-09-25T05:06:49;4.40;;;3.50;;
32912;SDS011;19266;45.580;-122.680;2022-09-25T05:09:19;7.08;;;3.20;;
32912;SDS011;19266;45.580;-122.680;2022-09-25T05:11:48;3.90;;;3.22;;
32912;SDS011;19266;45.580;-122.680;2022-09-25T05:14:18;6.90;;;3.40;;
32912;SDS011;19266;45.580;-122.680;2022-09-25T05:16:49;4.45;;;3.47;;
32912;SDS011;19266;45.580;-122.680;2022-09-25T05:19:19;5.50;;;3.30;;
32912;SDS011;19266;45.580;-122.680;2022-09-25T05:21:48;6.17;;;3.47;;
32912;SDS011;19266;45.580;-122.680;2022-09-25T05:24:22;4.30;;;3.33;;
32912;SDS011;19266;45.580;-122.680;2022-09-25T05:27:10;6.70;;;3.37;;
32912;SDS011;19266;45.580;-122.680;2022-09-25T05:30:01;6.12;;;3.30;;
32912;SDS011;19266;45.580;-122.680;2022-09-25T05:32:32;5.22;;;3.33;;
32912;SDS011;19266;45.580;-122.680;2022-09-25T05:35:02;3.85;;;3.45;;
32912;SDS011;19266;45.580;-122.680;2022-09-25T05:37:32;5.53;;;3.55;;
32912;SDS011;19266;45.580;-122.680;2022-09-25T05:40:02;4.75;;;3.52;;
32912;SDS011;19266;45.580;-122.680;2022-09-25T05:42:33;6.15;;;3.70;;
32912;SDS011;19266;45.580;-122.680;2022-09-25T05:45:03;6.70;;;3.67;;
32912;SDS011;19266;45.580;-122.680;2022-09-25T05:47:33;5.97;;;3.47;;
32912;SDS011;19266;45.580;-122.680;2022-09-25T05:50:03;7.08;;;3.50;;
32912;SDS011;19266;45.580;-122.680;2022-09-25T05:52:33;6.65;;;3.58;;
32912;SDS011;19266;45.580;-122.680;2022-09-25T05:55:04;7.35;;;3.55;;
32912;SDS011;19266;45.580;-122.680;2022-09-25T05:57:34;5.95;;;3.60;;
32912;SDS011;19266;45.580;-122.680;2022-09-25T06:00:06;6.37;;;3.65;;
32912;SDS011;19266;45.580;-122.680;2022-09-25T06:02:36;8.35;;;3.80;;
32912;SDS011;19266;45.580;-122.680;2022-09-25T06:05:06;7.00;;;3.72;;
32912;SDS011;19266;45.580;-122.680;2022-09-25T06:07:37;7.45;;;3.60;;
32912;SDS011;19266;45.580;-122.680;2022-09-25T06:10:07;3.80;;;3.40;;
32912;SDS011;19266;45.580;-122.680;2022-09-25T06:12:37;3.98;;;3.37;;
32912;SDS011;19266;45.580;-122.680;2022-09-25T06:15:07;3.98;;;3.15;;
32912;SDS011;19266;45.580;-122.680;2022-09-25T06:17:38;5.30;;;3.40;;
32912;SDS011;19266;45.580;-122.680;2022-09-25T06:20:08;5.53;;;3.40;;
32912;SDS011;19266;45.580;-122.680;2022-09-25T06:22:38;4.60;;;3.30;;
32912;SDS011;19266;45.580;-122.680;2022-09-25T06:25:07;3.58;;;3.08;;
32912;SDS011;19266;45.580;-122.680;2022-09-25T06:27:37;5.50;;;3.62;;
32912;SDS011;19266;45.580;-122.680;2022-09-25T06:30:07;5.78;;;3.20;;
32912;SDS011;19266;45.580;-122.680;2022-09-25T06:32:36;4.72;;;3.30;;
32912;SDS011;19266;45.580;-122.680;2022-09-25T06:35:05;6.15;;;3.80;;
32912;SDS011;19266;45.580;-122.680;2022-09-25T06:37:35;6.05;;;3.70;;
32912;SDS011;19266;45.580;-122.680;2022-09-25T06:40:04;5.87;;;3.90;;
32912;SDS011;19266;45.580;-122.680;2022-09-25T06:42:33;6.22;;;3.60;;
32912;SDS011;19266;45.580;-122.680;2022-09-25T06:45:03;4.60;;;3.65;;
32912;SDS011;19266;45.580;-122.680;2022-09-25T06:47:32;3.75;;;3.40;;
32912;SDS011;19266;45.580;-122.680;2022-09-25T06:50:01;5.40;;;4.30;;
32912;SDS011;19266;45.580;-122.680;2022-09-25T06:52:30;5.17;;;3.77;;
32912;SDS011;19266;45.580;-122.680;2022-09-25T06:55:00;5.60;;;3.45;;
32912;SDS011;19266;45.580;-122.680;2022-09-25T06:57:29;4.85;;;3.85;;
32912;SDS011;19266;45.580;-122.680;2022-09-25T06:59:59;5.22;;;3.87;;
32912;SDS011;19266;45.580;-122.680;2022-09-25T07:02:28;6.03;;;3.87;;
32912;SDS011;19266;45.580;-122.680;2022-09-25T07:05:15;4.92;;;3.55;;
32912;SDS011;19266;45.580;-122.680;2022-09-25T07:07:45;5.00;;;3.70;;
32912;SDS011;19266;45.580;-122.680;2022-09-25T07:10:15;5.97;;;3.42;;
32912;SDS011;19266;45.580;-122.680;2022-09-25T07:12:44;5.17;;;3.52;;
32912;SDS011;19266;45.580;-122.680;2022-09-25T07:15:14;4.12;;;3.72;;
32912;SDS011;19266;45.580;-122.680;2022-09-25T07:17:43;4.15;;;3.70;;
32912;SDS011;19266;45.580;-122.680;2022-09-25T07:20:13;5.08;;;3.65;;
32912;SDS011;19266;45.580;-122.680;2022-09-25T07:22:42;4.30;;;3.60;;
32912;SDS011;19266;45.580;-122.680;2022-09-25T07:25:11;5.25;;;3.95;;
32912;SDS011;19266;45.580;-122.680;2022-09-25T07:27:41;4.78;;;3.70;;
32912;SDS011;19266;45.580;-122.680;2022-09-25T07:30:10;4.65;;;3.20;;
32912;SDS011;19266;45.580;-122.680;2022-09-25T07:32:39;4.55;;;3.72;;
32912;SDS011;19266;45.580;-122.680;2022-09-25T07:35:09;4.55;;;3.22;;
32912;SDS011;19266;45.580;-122.680;2022-09-25T07:37:38;6.15;;;3.40;;
32912;SDS011;19266;45.580;-122.680;2022-09-25T07:40:08;5.55;;;3.80;;
32912;SDS011;19266;45.580;-122.680;2022-09-25T07:42:38;5.37;;;3.65;;
32912;SDS011;19266;45.580;-122.680;2022-09-25T07:45:08;5.15;;;3.40;;
32912;SDS011;19266;45.580;-122.680;2022-09-25T07:47:37;5.53;;;3.80;;
32912;SDS011;19266;45.580;-122.680;2022-09-25T07:50:06;5.78;;;3.45;;
32912;SDS011;19266;45.580;-122.680;2022-09-25T07:52:36;6.72;;;3.40;;
32912;SDS011;19266;45.580;-122.680;2022-09-25T07:55:07;5.42;;;3.60;;
32912;SDS011;19266;45.580;-122.680;2022-09-25T07:57:37;5.25;;;3.60;;
32912;SDS011;19266;45.580;-122.680;2022-09-25T08:00:09;5.25;;;3.35;;
32912;SDS011;19266;45.580;-122.680;2022-09-25T08:02:39;5.20;;;3.65;;
32912;SDS011;19266;45.580;-122.680;2022-09-25T08:05:09;6.20;;;3.60;;
32912;SDS011;19266;45.580;-122.680;2022-09-25T08:07:40;6.22;;;3.80;;
32912;SDS011;19266;45.580;-122.680;2022-09-25T08:10:10;4.47;;;3.75;;
32912;SDS011;19266;45.580;-122.680;2022-09-25T08:12:40;4.97;;;3.50;;
32912;SDS011;19266;45.580;-122.680;2022-09-25T08:15:09;4.75;;;3.90;;
32912;SDS011;19266;45.580;-122.680;2022-09-25T08:17:41;7.17;;;3.80;;
32912;SDS011;19266;45.580;-122.680;2022-09-25T08:20:12;4.92;;;3.70;;
32912;SDS011;19266;45.580;-122.680;2022-09-25T08:22:42;5.08;;;3.70;;
32912;SDS011;19266;45.580;-122.680;2022-09-25T08:25:13;4.22;;;3.62;;
32912;SDS011;19266;45.580;-122.680;2022-09-25T08:27:43;5.72;;;3.40;;
32912;SDS011;19266;45.580;-122.680;2022-09-25T08:30:12;4.92;;;3.70;;
32912;SDS011;19266;45.580;-122.680;2022-09-25T08:32:43;5.50;;;3.90;;
32912;SDS011;19266;45.580;-122.680;2022-09-25T08:35:13;4.67;;;3.90;;
32912;SDS011;19266;45.580;-122.680;2022-09-25T08:37:43;5.20;;;3.80;;
32912;SDS011;19266;45.580;-122.680;2022-09-25T08:40:17;6.00;;;3.77;;
32912;SDS011;19266;45.580;-122.680;2022-09-25T08:42:48;4.78;;;3.58;;
32912;SDS011;19266;45.580;-122.680;2022-09-25T08:45:24;4.60;;;4.10;;
32912;SDS011;19266;45.580;-122.680;2022-09-25T08:48:16;6.95;;;3.83;;
32912;SDS011;19266;45.580;-122.680;2022-09-25T08:51:01;5.08;;;3.67;;
32912;SDS011;19266;45.580;-122.680;2022-09-25T08:53:33;5.12;;;3.70;;
32912;SDS011;19266;45.580;-122.680;2022-09-25T08:56:04;8.23;;;3.90;;
32912;SDS011;19266;45.580;-122.680;2022-09-25T08:58:50;5.30;;;3.87;;
32912;SDS011;19266;45.580;-122.680;2022-09-25T09:01:27;4.42;;;3.85;;
32912;SDS011;19266;45.580;-122.680;2022-09-25T09:06:28;4.72;;;4.22;;
32912;SDS011;19266;45.580;-122.680;2022-09-25T09:09:02;7.20;;;4.22;;
32912;SDS011;19266;45.580;-122.680;2022-09-25T09:11:43;6.33;;;4.17;;
32912;SDS011;19266;45.580;-122.680;2022-09-25T09:14:14;7.75;;;4.20;;
32912;SDS011;19266;45.580;-122.680;2022-09-25T09:16:59;7.17;;;3.83;;
32912;SDS011;19266;45.580;-122.680;2022-09-25T09:19:29;6.08;;;3.92;;
32912;SDS011;19266;45.580;-122.680;2022-09-25T09:22:09;4.78;;;3.60;;
32912;SDS011;19266;45.580;-122.680;2022-09-25T09:30:05;6.70;;;4.47;;
32912;SDS011;19266;45.580;-122.680;2022-09-25T09:35:34;5.70;;;4.15;;
32912;SDS011;19266;45.580;-122.680;2022-09-25T09:41:12;5.97;;;4.03;;
32912;SDS011;19266;45.580;-122.680;2022-09-25T09:46:35;5.33;;;4.25;;
32912;SDS011;19266;45.580;-122.680;2022-09-25T09:49:49;8.18;;;4.75;;
32912;SDS011;19266;45.580;-122.680;2022-09-25T09:57:00;8.68;;;5.60;;
32912;SDS011;19266;45.580;-122.680;2022-09-25T09:59:44;5.97;;;4.90;;
32912;SDS011;19266;45.580;-122.680;2022-09-25T10:02:23;6.75;;;4.50;;
32912;SDS011;19266;45.580;-122.680;2022-09-25T10:04:48;6.08;;;4.50;;
32912;SDS011;19266;45.580;-122.680;2022-09-25T10:07:19;7.28;;;4.42;;
32912;SDS011;19266;45.580;-122.680;2022-09-25T10:09:50;6.78;;;4.40;;
32912;SDS011;19266;45.580;-122.680;2022-09-25T10:12:26;7.25;;;4.20;;
32912;SDS011;19266;45.580;-122.680;2022-09-25T10:15:00;7.15;;;4.28;;
32912;SDS011;19266;45.580;-122.680;2022-09-25T10:17:28;5.45;;;4.33;;
32912;SDS011;19266;45.580;-122.680;2022-09-25T10:20:02;8.50;;;4.20;;
32912;SDS011;19266;45.580;-122.680;2022-09-25T10:22:35;4.70;;;4.10;;
32912;SDS011;19266;45.580;-122.680;2022-09-25T10:25:05;6.97;;;4.12;;
32912;SDS011;19266;45.580;-122.680;2022-09-25T10:27:37;7.28;;;4.72;;
32912;SDS011;19266;45.580;-122.680;2022-09-25T10:41:13;8.15;;;5.60;;
32912;SDS011;19266;45.580;-122.680;2022-09-25T10:43:28;8.33;;;5.10;;
32912;SDS011;19266;45.580;-122.680;2022-09-25T10:46:04;8.65;;;5.30;;
32912;SDS011;19266;45.580;-122.680;2022-09-25T10:48:34;7.47;;;5.03;;
32912;SDS011;19266;45.580;-122.680;2022-09-25T10:51:22;8.40;;;4.75;;
32912;SDS011;19266;45.580;-122.680;2022-09-25T10:53:52;7.45;;;4.65;;
32912;SDS011;19266;45.580;-122.680;2022-09-25T10:56:28;7.75;;;4.60;;
32912;SDS011;19266;45.580;-122.680;2022-09-25T10:58:56;6.40;;;4.53;;
32912;SDS011;19266;45.580;-122.680;2022-09-25T11:01:35;7.25;;;5.15;;
32912;SDS011;19266;45.580;-122.680;2022-09-25T11:04:13;7.97;;;4.50;;
32912;SDS011;19266;45.580;-122.680;2022-09-25T11:06:47;7.00;;;4.42;;
32912;SDS011;19266;45.580;-122.680;2022-09-25T11:09:19;7.75;;;4.35;;
32912;SDS011;19266;45.580;-122.680;2022-09-25T11:11:48;8.15;;;4.25;;
32912;SDS011;19266;45.580;-122.680;2022-09-25T11:14:29;5.03;;;4.22;;
32912;SDS011;19266;45.580;-122.680;2022-09-25T11:17:27;6.40;;;4.62;;
32912;SDS011;19266;45.580;-122.680;2022-09-25T11:19:32;6.97;;;4.40;;
32912;SDS011;19266;45.580;-122.680;2022-09-25T11:22:15;7.75;;;4.17;;
32912;SDS011;19266;45.580;-122.680;2022-09-25T11:24:50;6.87;;;4.25;;
32912;SDS011;19266;45.580;-122.680;2022-09-25T11:40:43;6.58;;;4.60;;
32912;SDS011;19266;45.580;-122.680;2022-09-25T11:43:42;8.63;;;4.30;;
32912;SDS011;19266;45.580;-122.680;2022-09-25T11:48:59;6.33;;;4.60;;
32912;SDS011;19266;45.580;-122.680;2022-09-25T11:51:33;6.35;;;4.30;;
32912;SDS011;19266;45.580;-122.680;2022-09-25T11:56:35;5.80;;;4.70;;
32912;SDS011;19266;45.580;-122.680;2022-09-25T12:01:57;6.22;;;4.60;;
32912;SDS011;19266;45.580;-122.680;2022-09-25T12:04:40;6.97;;;4.60;;
32912;SDS011;19266;45.580;-122.680;2022-09-25T12:07:21;7.05;;;4.75;;
32912;SDS011;19266;45.580;-122.680;2022-09-25T12:10:53;7.87;;;4.83;;
32912;SDS011;19266;45.580;-122.680;2022-09-25T12:15:17;6.45;;;5.03;;
32912;SDS011;19266;45.580;-122.680;2022-09-25T12:18:01;6.37;;;4.67;;
32912;SDS011;19266;45.580;-122.680;2022-09-25T12:23:22;7.78;;;4.53;;
32912;SDS011;19266;45.580;-122.680;2022-09-25T12:25:57;6.72;;;4.50;;
32912;SDS011;19266;45.580;-122.680;2022-09-25T12:33:47;7.00;;;4.58;;
32912;SDS011;19266;45.580;-122.680;2022-09-25T12:36:16;6.83;;;4.50;;
32912;SDS011;19266;45.580;-122.680;2022-09-25T12:38:50;7.20;;;4.90;;
32912;SDS011;19266;45.580;-122.680;2022-09-25T12:41:23;4.97;;;4.35;;
32912;SDS011;19266;45.580;-122.680;2022-09-25T12:43:56;6.60;;;4.67;;
32912;SDS011;19266;45.580;-122.680;2022-09-25T12:51:39;8.28;;;4.65;;
32912;SDS011;19266;45.580;-122.680;2022-09-25T12:54:12;7.12;;;4.35;;
32912;SDS011;19266;45.580;-122.680;2022-09-25T12:56:45;6.35;;;4.53;;
32912;SDS011;19266;45.580;-122.680;2022-09-25T12:59:22;6.15;;;4.50;;
32912;SDS011;19266;45.580;-122.680;2022-09-25T13:02:15;6.10;;;4.80;;
32912;SDS011;19266;45.580;-122.680;2022-09-25T13:04:56;6.67;;;4.87;;
32912;SDS011;19266;45.580;-122.680;2022-09-25T13:07:46;8.58;;;4.80;;
32912;SDS011;19266;45.580;-122.680;2022-09-25T13:13:01;8.38;;;5.00;;
32912;SDS011;19266;45.580;-122.680;2022-09-25T13:15:32;6.05;;;4.85;;
32912;SDS011;19266;45.580;-122.680;2022-09-25T13:18:02;6.53;;;5.20;;
32912;SDS011;19266;45.580;-122.680;2022-09-25T13:25:47;8.85;;;5.42;;
32912;SDS011;19266;45.580;-122.680;2022-09-25T13:28:16;7.75;;;5.42;;
32912;SDS011;19266;45.580;-122.680;2022-09-25T13:31:03;7.92;;;5.62;;
32912;SDS011;19266;45.580;-122.680;2022-09-25T13:33:32;7.45;;;5.50;;
32912;SDS011;19266;45.580;-122.680;2022-09-25T13:36:07;8.15;;;5.85;;
32912;SDS011;19266;45.580;-122.680;2022-09-25T13:38:40;7.25;;;5.50;;
32912;SDS011;19266;45.580;-122.680;2022-09-25T13:41:28;8.20;;;5.40;;
32912;SDS011;19266;45.580;-122.680;2022-09-25T13:46:48;7.60;;;5.90;;
32912;SDS011;19266;45.580;-122.680;2022-09-25T13:49:34;9.03;;;5.87;;
32912;SDS011;19266;45.580;-122.680;2022-09-25T13:52:11;7.75;;;5.65;;
32912;SDS011;19266;45.580;-122.680;2022-09-25T13:54:34;7.92;;;5.75;;
32912;SDS011;19266;45.580;-122.680;2022-09-25T13:57:05;9.20;;;5.45;;
32912;SDS011;19266;45.580;-122.680;2022-09-25T13:59:35;9.83;;;6.22;;
32912;SDS011;19266;45.580;-122.680;2022-09-25T14:04:54;9.15;;;5.92;;
32912;SDS011;19266;45.580;-122.680;2022-09-25T14:07:25;8.00;;;5.70;;
32912;SDS011;19266;45.580;-122.680;2022-09-25T14:09:57;7.67;;;5.42;;
32912;SDS011;19266;45.580;-122.680;2022-09-25T14:12:40;8.43;;;5.70;;
32912;SDS011;19266;45.580;-122.680;2022-09-25T14:15:23;7.03;;;5.62;;
32912;SDS011;19266;45.580;-122.680;2022-09-25T14:17:55;8.65;;;6.12;;
32912;SDS011;19266;45.580;-122.680;2022-09-25T14:20:30;7.45;;;5.42;;
32912;SDS011;19266;45.580;-122.680;2022-09-25T14:23:09;8.63;;;5.67;;
32912;SDS011;19266;45.580;-122.680;2022-09-25T14:25:32;8.08;;;6.37;;
32912;SDS011;19266;45.580;-122.680;2022-09-25T14:28:14;7.92;;;5.90;;
32912;SDS011;19266;45.580;-122.680;2022-09-25T14:30:34;9.05;;;7.08;;
32912;SDS011;19266;45.580;-122.680;2022-09-25T14:35:49;7.67;;;6.80;;
32912;SDS011;19266;45.580;-122.680;2022-09-25T14:38:19;9.05;;;6.40;;
32912;SDS011;19266;45.580;-122.680;2022-09-25T14:41:03;9.15;;;6.28;;
32912;SDS011;19266;45.580;-122.680;2022-09-25T14:46:13;8.33;;;5.87;;
32912;SDS011;19266;45.580;-122.680;2022-09-25T14:48:46;7.80;;;6.00;;
32912;SDS011;19266;45.580;-122.680;2022-09-25T14:51:26;8.75;;;6.10;;
32912;SDS011;19266;45.580;-122.680;2022-09-25T14:53:51;8.63;;;5.67;;
32912;SDS011;19266;45.580;-122.680;2022-09-25T14:56:21;8.08;;;5.83;;
32912;SDS011;19266;45.580;-122.680;2022-09-25T14:58:56;6.33;;;5.60;;
32912;SDS011;19266;45.580;-122.680;2022-09-25T15:01:23;9.53;;;5.45;;
32912;SDS011;19266;45.580;-122.680;2022-09-25T15:03:59;9.20;;;5.28;;
32912;SDS011;19266;45.580;-122.680;2022-09-25T15:06:27;6.83;;;5.60;;
32912;SDS011;19266;45.580;-122.680;2022-09-25T15:08:58;9.58;;;5.90;;
32912;SDS011;19266;45.580;-122.680;2022-09-25T15:11:39;6.60;;;5.40;;
32912;SDS011;19266;45.580;-122.680;2022-09-25T15:14:10;11.43;;;5.78;;
32912;SDS011;19266;45.580;-122.680;2022-09-25T15:16:41;8.75;;;5.45;;
32912;SDS011;19266;45.580;-122.680;2022-09-25T15:19:30;8.28;;;5.60;;
32912;SDS011;19266;45.580;-122.680;2022-09-25T15:22:00;10.63;;;5.90;;
32912;SDS011;19266;45.580;-122.680;2022-09-25T15:24:30;8.20;;;5.95;;
32912;SDS011;19266;45.580;-122.680;2022-09-25T15:27:01;8.13;;;5.95;;
32912;SDS011;19266;45.580;-122.680;2022-09-25T15:29:37;8.28;;;6.03;;
32912;SDS011;19266;45.580;-122.680;2022-09-25T15:35:21;10.55;;;6.30;;
32912;SDS011;19266;45.580;-122.680;2022-09-25T15:37:48;10.28;;;6.20;;
32912;SDS011;19266;45.580;-122.680;2022-09-25T15:40:19;8.28;;;5.80;;
32912;SDS011;19266;45.580;-122.680;2022-09-25T15:42:52;7.40;;;5.78;;
32912;SDS011;19266;45.580;-122.680;2022-09-25T15:50:43;8.43;;;5.85;;
32912;SDS011;19266;45.580;-122.680;2022-09-25T15:56:05;7.83;;;5.85;;
32912;SDS011;19266;45.580;-122.680;2022-09-25T15:58:30;10.43;;;5.75;;
32912;SDS011;19266;45.580;-122.680;2022-09-25T16:01:02;9.15;;;5.75;;
32912;SDS011;19266;45.580;-122.680;2022-09-25T16:03:51;8.25;;;5.47;;
32912;SDS011;19266;45.580;-122.680;2022-09-25T16:06:41;6.97;;;5.50;;
32912;SDS011;19266;45.580;-122.680;2022-09-25T16:11:48;6.83;;;5.12;;
32912;SDS011;19266;45.580;-122.680;2022-09-25T16:14:25;7.83;;;5.42;;
32912;SDS011;19266;45.580;-122.680;2022-09-25T16:16:58;8.45;;;5.05;;
32912;SDS011;19266;45.580;-122.680;2022-09-25T16:19:29;10.53;;;5.05;;
32912;SDS011;19266;45.580;-122.680;2022-09-25T16:22:16;6.37;;;4.80;;
32912;SDS011;19266;45.580;-122.680;2022-09-25T16:24:40;6.45;;;4.80;;
32912;SDS011;19266;45.580;-122.680;2022-09-25T16:27:18;6.92;;;4.97;;
32912;SDS011;19266;45.580;-122.680;2022-09-25T16:29:41;17.52;;;5.05;;
32912;SDS011;19266;45.580;-122.680;2022-09-25T16:32:15;6.65;;;4.80;;
32912;SDS011;19266;45.580;-122.680;2022-09-25T16:34:53;5.60;;;4.33;;
32912;SDS011;19266;45.580;-122.680;2022-09-25T16:37:19;6.10;;;4.50;;
32912;SDS011;19266;45.580;-122.680;2022-09-25T16:40:35;5.67;;;4.60;;
32912;SDS011;19266;45.580;-122.680;2022-09-25T16:44:51;11.20;;;4.60;;
32912;SDS011;19266;45.580;-122.680;2022-09-25T16:47:23;5.92;;;4.08;;